Aérodrome :
LOGIN :

S'inscrire | Disclaimer

   EN    FR    IT 

 










Légende :    VFR   VFR Marginal   IFR   IFR Intensif   IFR Très Intensif
Visi : 
Plafond : 
>= 8 km
>= 3000ft
5 à 8 km
1000 à 3000 ft
1500m à 5 km
500 à 1000 ft
800 à 1500m
200 à 500 ft
< 800m
< 200 ft
Symboles :   Orages  Brouillard  Fortes neiges  Fortes précipitations  Vent > 20 kt
SIGMETs :   Divers  Orages  Givrage  Turbulence  Onde Orograph.  Cendres Volcan.






- Altitude de l'aérodrome : 1947 ft
- Code IATA : OBF


EDMO - Oberpfaffenhofen

DERNIER METAR :
  • 041620Z 17004KT 8000 -RA FEW007 SCT011 BKN041 15/13 Q1014

METARs EXPIRÉS :
  • 041550Z 20003KT 170V230 9999 -RA FEW011 SCT040 15/14 Q1014
  • 041520Z 16003KT 130V190 9000 -RA BKN043 15/12 Q1014
  • 041450Z 16003KT 9999 -RA SCT025 16/13 Q1014
  • 041420Z VRB02KT 9999 -RA SCT023 SCT040 16/13 Q1014
  • 041350Z 14003KT 110V170 9999 -RA SCT025 BKN045 16/13 Q1014
  • 041320Z 12003KT 080V180 9999 -RA SCT022 SCT045 BKN055 16/13 Q1014

TAF TAF EDMO
Valide du 04 à 15h jusqu'au 05 à 00h UTC


041400Z 0415/0424 VRB03KT 9999 SCT025 BKN050
PROB40
TEMPO 0416/0421 RA
TEMPO 0421/0424 3000 -RADZ BR FEW004 BKN006



MET'MAP, la Météo Aéronautique d'un coup d'oeil ! - Copyright ORBIFLY Décembre 2007 - Disclaimer

ORBIFLY MET'MAP TEAM :

Programmation & Développement : Alexandra Zaïnal
Sur une idée originale de : Baudouin d'Aumeries
Assistance à la programmation : Marc-Olivier Méhu
Soutien technique & logistique : Manuel Goepfert

Contact : metmap@orbifly.com




SOURCES & CREDITS :

   NOAA